sensor_id;sensor_type;location;lat;lon;timestamp;P1;durP1;ratioP1;P2;durP2;ratioP2
54917;SDS011;40818;50.562;7.454;2023-02-22T00:02:57;38.38;;;10.50;;
54917;SDS011;40818;50.562;7.454;2023-02-22T00:13:01;32.10;;;9.68;;
54917;SDS011;40818;50.562;7.454;2023-02-22T00:23:12;29.25;;;9.65;;
54917;SDS011;40818;50.562;7.454;2023-02-22T00:33:18;27.65;;;7.47;;
54917;SDS011;40818;50.562;7.454;2023-02-22T00:43:24;30.85;;;8.43;;
54917;SDS011;40818;50.562;7.454;2023-02-22T00:53:27;33.20;;;10.18;;
54917;SDS011;40818;50.562;7.454;2023-02-22T01:03:33;30.65;;;10.60;;
54917;SDS011;40818;50.562;7.454;2023-02-22T01:13:40;32.90;;;9.52;;
54917;SDS011;40818;50.562;7.454;2023-02-22T01:23:47;39.13;;;10.35;;
54917;SDS011;40818;50.562;7.454;2023-02-22T01:33:51;35.90;;;10.13;;
54917;SDS011;40818;50.562;7.454;2023-02-22T01:43:57;29.60;;;10.55;;
54917;SDS011;40818;50.562;7.454;2023-02-22T01:54:01;39.17;;;11.20;;
54917;SDS011;40818;50.562;7.454;2023-02-22T02:04:09;29.55;;;10.65;;
54917;SDS011;40818;50.562;7.454;2023-02-22T02:14:15;38.88;;;10.48;;
54917;SDS011;40818;50.562;7.454;2023-02-22T02:24:31;41.47;;;9.20;;
54917;SDS011;40818;50.562;7.454;2023-02-22T02:35:13;22.58;;;8.07;;
54917;SDS011;40818;50.562;7.454;2023-02-22T02:45:25;28.38;;;7.68;;
54917;SDS011;40818;50.562;7.454;2023-02-22T02:55:35;26.45;;;7.20;;
54917;SDS011;40818;50.562;7.454;2023-02-22T03:05:43;22.90;;;7.40;;
54917;SDS011;40818;50.562;7.454;2023-02-22T03:16:08;37.00;;;9.80;;
54917;SDS011;40818;50.562;7.454;2023-02-22T03:26:21;25.63;;;8.98;;
54917;SDS011;40818;50.562;7.454;2023-02-22T03:36:34;31.70;;;8.90;;
54917;SDS011;40818;50.562;7.454;2023-02-22T03:46:41;23.67;;;8.15;;
54917;SDS011;40818;50.562;7.454;2023-02-22T03:56:51;21.35;;;9.65;;
54917;SDS011;40818;50.562;7.454;2023-02-22T04:06:58;27.27;;;9.18;;
54917;SDS011;40818;50.562;7.454;2023-02-22T04:17:05;29.17;;;10.80;;
54917;SDS011;40818;50.562;7.454;2023-02-22T04:27:10;31.08;;;10.15;;
54917;SDS011;40818;50.562;7.454;2023-02-22T04:37:18;26.38;;;10.73;;
54917;SDS011;40818;50.562;7.454;2023-02-22T04:47:21;29.35;;;10.75;;
54917;SDS011;40818;50.562;7.454;2023-02-22T04:57:28;34.10;;;12.70;;
54917;SDS011;40818;50.562;7.454;2023-02-22T05:07:32;27.60;;;11.23;;
54917;SDS011;40818;50.562;7.454;2023-02-22T05:17:38;29.77;;;10.80;;
54917;SDS011;40818;50.562;7.454;2023-02-22T05:27:41;27.50;;;10.32;;
54917;SDS011;40818;50.562;7.454;2023-02-22T05:37:48;23.45;;;10.23;;
54917;SDS011;40818;50.562;7.454;2023-02-22T05:47:52;32.25;;;10.45;;
54917;SDS011;40818;50.562;7.454;2023-02-22T05:57:59;30.30;;;9.63;;
54917;SDS011;40818;50.562;7.454;2023-02-22T06:08:05;24.95;;;10.77;;
54917;SDS011;40818;50.562;7.454;2023-02-22T06:18:11;30.88;;;10.02;;
54917;SDS011;40818;50.562;7.454;2023-02-22T06:28:15;30.08;;;10.90;;
54917;SDS011;40818;50.562;7.454;2023-02-22T06:38:24;42.38;;;12.13;;
54917;SDS011;40818;50.562;7.454;2023-02-22T06:48:29;34.80;;;11.73;;
54917;SDS011;40818;50.562;7.454;2023-02-22T06:58:35;34.97;;;11.30;;
54917;SDS011;40818;50.562;7.454;2023-02-22T07:08:38;40.00;;;12.77;;
54917;SDS011;40818;50.562;7.454;2023-02-22T07:18:44;28.58;;;12.68;;
54917;SDS011;40818;50.562;7.454;2023-02-22T07:28:48;36.75;;;11.40;;
54917;SDS011;40818;50.562;7.454;2023-02-22T07:38:54;34.65;;;10.88;;
54917;SDS011;40818;50.562;7.454;2023-02-22T07:48:58;27.50;;;10.07;;
54917;SDS011;40818;50.562;7.454;2023-02-22T07:59:04;27.15;;;9.93;;
54917;SDS011;40818;50.562;7.454;2023-02-22T08:09:08;27.55;;;9.95;;
54917;SDS011;40818;50.562;7.454;2023-02-22T08:19:14;29.88;;;10.20;;
54917;SDS011;40818;50.562;7.454;2023-02-22T08:29:18;24.48;;;10.32;;
54917;SDS011;40818;50.562;7.454;2023-02-22T08:39:24;25.77;;;9.77;;
54917;SDS011;40818;50.562;7.454;2023-02-22T08:49:28;26.50;;;8.23;;
54917;SDS011;40818;50.562;7.454;2023-02-22T08:59:34;26.70;;;9.45;;
54917;SDS011;40818;50.562;7.454;2023-02-22T09:09:37;22.65;;;9.32;;
54917;SDS011;40818;50.562;7.454;2023-02-22T09:19:43;19.25;;;7.80;;
54917;SDS011;40818;50.562;7.454;2023-02-22T09:29:47;21.75;;;8.23;;
54917;SDS011;40818;50.562;7.454;2023-02-22T09:39:54;18.42;;;7.85;;
54917;SDS011;40818;50.562;7.454;2023-02-22T09:49:59;17.67;;;7.28;;
54917;SDS011;40818;50.562;7.454;2023-02-22T10:00:11;20.23;;;8.05;;
54917;SDS011;40818;50.562;7.454;2023-02-22T10:10:20;16.83;;;7.47;;
54917;SDS011;40818;50.562;7.454;2023-02-22T10:20:41;16.58;;;7.25;;
54917;SDS011;40818;50.562;7.454;2023-02-22T10:30:52;18.83;;;7.63;;
54917;SDS011;40818;50.562;7.454;2023-02-22T10:41:02;17.75;;;6.60;;
54917;SDS011;40818;50.562;7.454;2023-02-22T10:51:22;11.57;;;6.10;;
54917;SDS011;40818;50.562;7.454;2023-02-22T11:01:32;15.65;;;7.50;;
54917;SDS011;40818;50.562;7.454;2023-02-22T11:11:40;12.63;;;6.28;;
54917;SDS011;40818;50.562;7.454;2023-02-22T11:21:48;14.10;;;5.72;;
54917;SDS011;40818;50.562;7.454;2023-02-22T11:31:53;10.45;;;4.20;;
54917;SDS011;40818;50.562;7.454;2023-02-22T11:42:00;11.70;;;4.18;;
54917;SDS011;40818;50.562;7.454;2023-02-22T11:52:23;8.93;;;4.22;;
54917;SDS011;40818;50.562;7.454;2023-02-22T12:02:40;12.80;;;5.20;;
54917;SDS011;40818;50.562;7.454;2023-02-22T12:12:57;14.80;;;6.93;;
54917;SDS011;40818;50.562;7.454;2023-02-22T12:23:16;19.35;;;7.65;;
54917;SDS011;40818;50.562;7.454;2023-02-22T12:33:30;15.98;;;8.68;;
54917;SDS011;40818;50.562;7.454;2023-02-22T12:43:47;16.85;;;7.60;;
54917;SDS011;40818;50.562;7.454;2023-02-22T13:04:08;13.65;;;7.22;;
54917;SDS011;40818;50.562;7.454;2023-02-22T13:14:15;10.75;;;5.93;;
54917;SDS011;40818;50.562;7.454;2023-02-22T13:24:35;9.02;;;4.80;;
54917;SDS011;40818;50.562;7.454;2023-02-22T13:34:50;10.95;;;4.95;;
54917;SDS011;40818;50.562;7.454;2023-02-22T13:45:25;9.88;;;5.22;;
54917;SDS011;40818;50.562;7.454;2023-02-22T13:56:02;9.38;;;4.15;;
54917;SDS011;40818;50.562;7.454;2023-02-22T14:06:09;10.63;;;4.97;;
54917;SDS011;40818;50.562;7.454;2023-02-22T14:16:34;10.32;;;5.00;;
54917;SDS011;40818;50.562;7.454;2023-02-22T14:26:42;13.30;;;6.05;;
54917;SDS011;40818;50.562;7.454;2023-02-22T14:36:57;13.77;;;5.95;;
54917;SDS011;40818;50.562;7.454;2023-02-22T14:47:08;10.75;;;5.70;;
54917;SDS011;40818;50.562;7.454;2023-02-22T14:57:20;12.57;;;5.75;;
54917;SDS011;40818;50.562;7.454;2023-02-22T15:07:31;12.55;;;6.90;;
54917;SDS011;40818;50.562;7.454;2023-02-22T15:17:35;14.02;;;5.85;;
54917;SDS011;40818;50.562;7.454;2023-02-22T15:27:41;13.40;;;6.97;;
54917;SDS011;40818;50.562;7.454;2023-02-22T15:37:56;12.13;;;6.85;;
54917;SDS011;40818;50.562;7.454;2023-02-22T15:48:03;10.48;;;6.40;;
54917;SDS011;40818;50.562;7.454;2023-02-22T15:58:08;14.40;;;6.28;;
54917;SDS011;40818;50.562;7.454;2023-02-22T16:08:17;19.00;;;7.57;;
54917;SDS011;40818;50.562;7.454;2023-02-22T16:18:27;20.05;;;7.55;;
54917;SDS011;40818;50.562;7.454;2023-02-22T16:28:35;17.95;;;6.93;;
54917;SDS011;40818;50.562;7.454;2023-02-22T16:38:51;15.15;;;7.53;;
54917;SDS011;40818;50.562;7.454;2023-02-22T16:48:57;16.10;;;6.63;;
54917;SDS011;40818;50.562;7.454;2023-02-22T16:59:04;15.55;;;6.90;;
54917;SDS011;40818;50.562;7.454;2023-02-22T17:09:15;12.70;;;5.78;;
54917;SDS011;40818;50.562;7.454;2023-02-22T17:19:20;16.25;;;7.15;;
54917;SDS011;40818;50.562;7.454;2023-02-22T17:29:27;21.13;;;7.63;;
54917;SDS011;40818;50.562;7.454;2023-02-22T17:39:31;18.13;;;7.97;;
54917;SDS011;40818;50.562;7.454;2023-02-22T17:49:37;21.42;;;7.13;;
54917;SDS011;40818;50.562;7.454;2023-02-22T17:59:41;16.23;;;8.10;;
54917;SDS011;40818;50.562;7.454;2023-02-22T18:09:47;17.30;;;7.82;;
54917;SDS011;40818;50.562;7.454;2023-02-22T18:19:50;16.90;;;9.13;;
54917;SDS011;40818;50.562;7.454;2023-02-22T18:29:57;17.15;;;9.77;;
54917;SDS011;40818;50.562;7.454;2023-02-22T18:40:00;14.23;;;8.75;;
54917;SDS011;40818;50.562;7.454;2023-02-22T18:50:12;22.63;;;9.35;;
54917;SDS011;40818;50.562;7.454;2023-02-22T19:00:17;16.02;;;7.30;;
54917;SDS011;40818;50.562;7.454;2023-02-22T19:10:25;15.15;;;7.47;;
54917;SDS011;40818;50.562;7.454;2023-02-22T19:20:29;21.15;;;10.85;;
54917;SDS011;40818;50.562;7.454;2023-02-22T19:30:35;25.33;;;11.75;;
54917;SDS011;40818;50.562;7.454;2023-02-22T19:40:41;25.45;;;10.02;;
54917;SDS011;40818;50.562;7.454;2023-02-22T19:50:47;30.20;;;12.65;;
54917;SDS011;40818;50.562;7.454;2023-02-22T20:00:56;23.17;;;11.20;;
54917;SDS011;40818;50.562;7.454;2023-02-22T20:11:03;32.83;;;12.68;;
54917;SDS011;40818;50.562;7.454;2023-02-22T20:21:07;27.02;;;12.32;;
54917;SDS011;40818;50.562;7.454;2023-02-22T20:31:14;28.90;;;14.40;;
54917;SDS011;40818;50.562;7.454;2023-02-22T20:41:19;58.83;;;25.15;;
54917;SDS011;40818;50.562;7.454;2023-02-22T20:51:28;32.80;;;17.05;;
54917;SDS011;40818;50.562;7.454;2023-02-22T21:01:32;43.63;;;20.13;;
54917;SDS011;40818;50.562;7.454;2023-02-22T21:11:38;44.28;;;21.63;;
54917;SDS011;40818;50.562;7.454;2023-02-22T21:21:42;54.10;;;24.73;;
54917;SDS011;40818;50.562;7.454;2023-02-22T21:31:47;33.30;;;16.15;;
54917;SDS011;40818;50.562;7.454;2023-02-22T21:41:51;38.92;;;16.85;;
54917;SDS011;40818;50.562;7.454;2023-02-22T21:51:57;30.90;;;14.82;;
54917;SDS011;40818;50.562;7.454;2023-02-22T22:02:00;35.47;;;15.18;;
54917;SDS011;40818;50.562;7.454;2023-02-22T22:12:08;34.60;;;18.30;;
54917;SDS011;40818;50.562;7.454;2023-02-22T22:22:13;27.80;;;15.25;;
54917;SDS011;40818;50.562;7.454;2023-02-22T22:32:19;132.73;;;38.13;;
54917;SDS011;40818;50.562;7.454;2023-02-22T22:42:23;30.73;;;14.98;;
54917;SDS011;40818;50.562;7.454;2023-02-22T22:52:29;27.02;;;13.30;;
54917;SDS011;40818;50.562;7.454;2023-02-22T23:02:34;33.33;;;15.00;;
54917;SDS011;40818;50.562;7.454;2023-02-22T23:12:40;32.83;;;14.25;;
54917;SDS011;40818;50.562;7.454;2023-02-22T23:22:43;33.75;;;14.93;;
54917;SDS011;40818;50.562;7.454;2023-02-22T23:32:51;42.33;;;17.77;;
54917;SDS011;40818;50.562;7.454;2023-02-22T23:42:56;35.13;;;17.75;;
54917;SDS011;40818;50.562;7.454;2023-02-22T23:53:05;33.38;;;16.75;;
